createdAt,value
2018-09-09T00:01:29.516Z,5.90
2018-09-09T00:03:56.681Z,4.97
2018-09-09T00:06:23.981Z,5.00
2018-09-09T00:08:51.099Z,5.87
2018-09-09T00:11:18.712Z,5.37
2018-09-09T00:13:45.819Z,5.27
2018-09-09T00:16:12.937Z,6.20
2018-09-09T00:18:40.227Z,4.97
2018-09-09T00:21:07.543Z,4.87
2018-09-09T00:23:34.681Z,4.97
2018-09-09T00:26:01.778Z,5.40
2018-09-09T00:28:28.954Z,4.57
2018-09-09T00:30:56.082Z,4.97
2018-09-09T00:33:23.401Z,4.77
2018-09-09T00:35:50.575Z,4.90
2018-09-09T00:38:17.720Z,4.70
2018-09-09T00:40:44.910Z,5.30
2018-09-09T00:43:12.021Z,4.80
2018-09-09T00:45:39.267Z,4.97
2018-09-09T00:48:06.583Z,5.87
2018-09-09T00:50:39.543Z,4.43
2018-09-09T00:53:12.511Z,4.80
2018-09-09T00:55:39.722Z,5.50
2018-09-09T00:58:07.076Z,6.30
2018-09-09T01:00:39.884Z,6.00
2018-09-09T01:03:07.119Z,4.73
2018-09-09T01:05:34.224Z,5.37
2018-09-09T01:08:01.383Z,4.93
2018-09-09T01:10:28.572Z,5.10
2018-09-09T01:12:55.737Z,4.20
2018-09-09T01:15:24.312Z,4.43
2018-09-09T01:17:52.260Z,4.63
2018-09-09T01:20:19.567Z,5.57
2018-09-09T01:22:46.641Z,4.80
2018-09-09T01:25:13.924Z,4.07
2018-09-09T01:27:41.107Z,5.20
2018-09-09T01:30:08.442Z,5.50
2018-09-09T01:32:35.612Z,5.47
2018-09-09T01:35:03.137Z,5.13
2018-09-09T01:37:30.240Z,5.93
2018-09-09T01:39:57.429Z,4.67
2018-09-09T01:42:31.290Z,5.23
2018-09-09T01:44:58.532Z,5.00
2018-09-09T01:47:25.693Z,5.03
2018-09-09T01:49:53.203Z,4.60
2018-09-09T01:52:20.507Z,5.50
2018-09-09T01:54:47.665Z,4.87
2018-09-09T01:57:14.797Z,4.63
2018-09-09T01:59:41.966Z,4.83
2018-09-09T02:02:09.060Z,4.83
2018-09-09T02:04:36.233Z,5.27
2018-09-09T02:07:03.412Z,4.63
2018-09-09T02:09:30.540Z,5.27
2018-09-09T02:11:57.705Z,4.17
2018-09-09T02:14:24.860Z,4.70
2018-09-09T02:16:52.037Z,5.37
2018-09-09T02:19:19.439Z,4.53
2018-09-09T02:21:46.548Z,5.17
2018-09-09T02:24:13.764Z,4.57
2018-09-09T02:26:40.917Z,4.97
2018-09-09T02:29:08.097Z,4.53
2018-09-09T02:31:35.300Z,5.20
2018-09-09T02:34:02.396Z,4.90
2018-09-09T02:36:29.545Z,5.97
2018-09-09T02:38:56.781Z,5.33
2018-09-09T02:41:23.972Z,6.63
2018-09-09T02:43:51.279Z,5.50
2018-09-09T02:46:18.592Z,5.30
2018-09-09T02:48:45.705Z,6.33
2018-09-09T02:51:12.905Z,4.67
2018-09-09T02:53:40.061Z,6.23
2018-09-09T02:56:09.112Z,6.13
2018-09-09T02:58:36.265Z,5.50
2018-09-09T03:01:03.430Z,4.23
2018-09-09T03:03:30.563Z,4.90
2018-09-09T03:05:57.823Z,4.50
2018-09-09T03:08:24.946Z,5.03
2018-09-09T03:10:57.953Z,5.00
2018-09-09T03:13:25.121Z,4.53
2018-09-09T03:15:52.268Z,4.70
2018-09-09T03:18:20.340Z,5.50
2018-09-09T03:20:48.891Z,4.33
2018-09-09T03:23:16.052Z,4.83
2018-09-09T03:25:43.276Z,4.67
2018-09-09T03:28:10.511Z,4.63
2018-09-09T03:30:37.614Z,4.93
2018-09-09T03:33:04.928Z,5.70
2018-09-09T03:35:32.253Z,6.63
2018-09-09T03:37:59.413Z,6.80
2018-09-09T03:40:26.513Z,6.27
2018-09-09T03:42:53.718Z,6.90
2018-09-09T03:45:20.868Z,6.90
2018-09-09T03:47:48.205Z,6.30
2018-09-09T03:50:15.329Z,6.80
2018-09-09T03:52:42.504Z,6.10
2018-09-09T03:55:09.775Z,6.57
2018-09-09T03:57:36.861Z,6.00
2018-09-09T04:00:04.380Z,5.90
2018-09-09T04:02:31.740Z,5.30
2018-09-09T04:04:58.921Z,6.10
2018-09-09T04:07:26.063Z,6.97
2018-09-09T04:09:53.263Z,6.00
2018-09-09T04:12:20.340Z,5.70
2018-09-09T04:14:47.769Z,5.83
2018-09-09T04:17:14.929Z,5.40
2018-09-09T04:19:42.035Z,5.20
2018-09-09T04:22:09.281Z,5.00
2018-09-09T04:24:36.413Z,6.10
2018-09-09T04:27:03.612Z,4.50
2018-09-09T04:29:30.725Z,4.50
2018-09-09T04:31:57.832Z,4.87
2018-09-09T04:34:25.006Z,4.33
2018-09-09T04:36:52.184Z,4.70
2018-09-09T04:39:19.324Z,4.53
2018-09-09T04:41:46.517Z,4.90
2018-09-09T04:44:13.667Z,4.67
2018-09-09T04:46:40.828Z,5.33
2018-09-09T04:49:08.848Z,5.60
2018-09-09T04:51:36.073Z,4.70
2018-09-09T04:54:03.225Z,5.07
2018-09-09T04:56:30.681Z,5.47
2018-09-09T04:58:57.767Z,5.80
2018-09-09T05:01:24.912Z,5.90
2018-09-09T05:03:52.078Z,5.83
2018-09-09T05:06:19.248Z,5.50
2018-09-09T05:08:46.443Z,6.80
2018-09-09T05:11:13.917Z,6.93
2018-09-09T05:13:41.041Z,7.00
2018-09-09T05:16:08.234Z,4.80
2018-09-09T05:18:35.332Z,4.93
2018-09-09T05:21:02.512Z,4.93
2018-09-09T05:23:29.707Z,5.83
2018-09-09T05:25:56.871Z,6.90
2018-09-09T05:28:24.080Z,6.13
2018-09-09T05:30:51.240Z,7.07
2018-09-09T05:33:18.361Z,5.90
2018-09-09T05:35:45.566Z,6.50
2018-09-09T05:38:12.717Z,7.43
2018-09-09T05:40:39.884Z,5.43
2018-09-09T05:43:07.097Z,6.27
2018-09-09T05:45:34.253Z,5.70
2018-09-09T05:48:01.595Z,6.20
2018-09-09T05:50:28.818Z,6.90
2018-09-09T05:53:02.724Z,6.70
2018-09-09T05:55:29.949Z,5.83
2018-09-09T05:57:57.065Z,7.53
2018-09-09T06:00:24.226Z,6.30
2018-09-09T06:02:51.468Z,8.00
2018-09-09T06:05:18.633Z,7.47
2018-09-09T06:07:45.920Z,6.63
2018-09-09T06:10:13.029Z,7.70
2018-09-09T06:12:40.270Z,7.00
2018-09-09T06:15:07.445Z,7.10
2018-09-09T06:17:34.581Z,6.90
2018-09-09T06:20:01.839Z,6.90
2018-09-09T06:22:29.033Z,7.30
2018-09-09T06:24:56.659Z,6.70
2018-09-09T06:27:23.857Z,6.70
2018-09-09T06:29:51.096Z,5.70
2018-09-09T06:32:18.230Z,5.43
2018-09-09T06:34:45.401Z,5.80
2018-09-09T06:37:12.540Z,6.37
2018-09-09T06:39:39.718Z,5.73
2018-09-09T06:42:06.867Z,6.50
2018-09-09T06:44:34.048Z,5.67
2018-09-09T06:47:01.168Z,5.47
2018-09-09T06:49:28.324Z,6.10
2018-09-09T06:51:55.509Z,5.60
2018-09-09T06:54:22.616Z,5.50
2018-09-09T06:56:49.896Z,6.17
2018-09-09T06:59:17.078Z,6.17
2018-09-09T07:01:44.220Z,6.23
2018-09-09T07:04:11.368Z,5.93
2018-09-09T07:06:38.647Z,5.57
2018-09-09T07:09:07.022Z,5.90
2018-09-09T07:11:34.363Z,6.20
2018-09-09T07:14:01.421Z,5.40
2018-09-09T07:16:28.624Z,6.30
2018-09-09T07:18:55.931Z,6.57
2018-09-09T07:21:23.030Z,7.17
2018-09-09T07:23:50.202Z,6.30
2018-09-09T07:26:17.511Z,6.10
2018-09-09T07:28:44.711Z,6.20
2018-09-09T07:31:11.964Z,6.30
2018-09-09T07:33:39.201Z,6.03
2018-09-09T07:36:06.368Z,6.97
2018-09-09T07:38:33.536Z,5.90
2018-09-09T07:41:00.664Z,6.33
2018-09-09T07:43:27.812Z,5.77
2018-09-09T07:45:55.143Z,6.80
2018-09-09T07:48:22.329Z,5.33
2018-09-09T07:50:49.575Z,6.70
2018-09-09T07:53:16.682Z,5.90
2018-09-09T07:55:43.808Z,5.97
2018-09-09T07:58:11.025Z,6.00
2018-09-09T08:00:38.244Z,5.70
2018-09-09T08:03:05.498Z,5.60
2018-09-09T08:05:33.121Z,6.27
2018-09-09T08:08:00.265Z,6.10
2018-09-09T08:10:27.418Z,6.07
2018-09-09T08:12:54.743Z,5.60
2018-09-09T08:15:22.562Z,6.30
2018-09-09T08:17:49.748Z,5.03
2018-09-09T08:20:17.073Z,5.30
2018-09-09T08:22:44.232Z,6.33
2018-09-09T08:25:11.356Z,5.37
2018-09-09T08:27:38.696Z,5.57
2018-09-09T08:30:05.929Z,5.77
2018-09-09T08:32:33.165Z,5.57
2018-09-09T08:35:00.412Z,6.07
2018-09-09T08:37:27.687Z,5.30
2018-09-09T08:39:55.013Z,5.80
2018-09-09T08:42:22.292Z,6.55
2018-09-09T08:44:49.462Z,6.20
2018-09-09T08:47:16.677Z,6.27
2018-09-09T08:49:43.773Z,6.00
2018-09-09T08:52:10.949Z,6.43
2018-09-09T08:54:38.181Z,6.20
2018-09-09T08:57:05.385Z,5.83
2018-09-09T08:59:32.493Z,6.03
2018-09-09T09:01:59.670Z,6.00
2018-09-09T09:04:26.825Z,6.07
2018-09-09T09:06:54.589Z,6.90
2018-09-09T09:09:21.868Z,5.90
2018-09-09T09:11:49.065Z,6.30
2018-09-09T09:14:16.241Z,6.93
2018-09-09T09:16:43.437Z,6.03
2018-09-09T09:19:10.553Z,5.60
2018-09-09T09:21:37.773Z,5.93
2018-09-09T09:24:04.953Z,6.07
2018-09-09T09:26:32.096Z,5.17
2018-09-09T09:28:59.420Z,6.50
2018-09-09T09:31:26.622Z,7.53
2018-09-09T09:33:53.913Z,6.43
2018-09-09T09:36:21.218Z,6.87
2018-09-09T09:38:48.406Z,6.37
2018-09-09T09:41:15.625Z,6.13
2018-09-09T09:43:42.923Z,6.70
2018-09-09T09:46:10.077Z,7.17
2018-09-09T09:48:37.395Z,6.27
2018-09-09T09:51:04.565Z,5.93
2018-09-09T09:53:32.467Z,6.60
2018-09-09T09:55:59.580Z,7.10
2018-09-09T09:58:26.760Z,7.20
2018-09-09T10:01:00.955Z,5.83
2018-09-09T10:03:28.161Z,6.40
2018-09-09T10:05:55.301Z,6.10
2018-09-09T10:08:22.446Z,6.60
2018-09-09T10:10:50.365Z,5.80
2018-09-09T10:13:17.534Z,7.10
2018-09-09T10:15:44.734Z,6.40
2018-09-09T10:18:12.033Z,7.33
2018-09-09T10:20:39.184Z,7.30
2018-09-09T10:23:06.514Z,7.60
2018-09-09T10:25:33.798Z,7.00
2018-09-09T10:28:00.952Z,6.83
2018-09-09T10:30:28.197Z,7.43
2018-09-09T10:32:56.104Z,6.13
2018-09-09T10:35:23.760Z,6.33
2018-09-09T10:37:51.036Z,6.73
2018-09-09T10:40:18.394Z,8.10
2018-09-09T10:42:45.569Z,6.30
2018-09-09T10:45:12.705Z,6.80
2018-09-09T10:47:39.909Z,6.67
2018-09-09T10:50:07.136Z,6.20
2018-09-09T10:52:34.394Z,6.87
2018-09-09T10:55:01.615Z,7.47
2018-09-09T10:57:28.832Z,6.80
2018-09-09T10:59:56.045Z,6.40
2018-09-09T11:02:23.289Z,6.63
2018-09-09T11:04:50.540Z,6.00
2018-09-09T11:07:18.049Z,5.30
2018-09-09T11:09:45.142Z,6.87
2018-09-09T11:12:12.244Z,5.07
2018-09-09T11:14:39.400Z,6.33
2018-09-09T11:17:06.597Z,6.37
2018-09-09T11:19:33.768Z,5.50
2018-09-09T11:22:00.946Z,7.30
2018-09-09T11:24:28.241Z,5.90
2018-09-09T11:26:55.548Z,6.60
2018-09-09T11:29:22.729Z,6.13
2018-09-09T11:31:49.904Z,5.40
2018-09-09T11:34:17.157Z,5.73
2018-09-09T11:36:44.366Z,6.20
2018-09-09T11:39:11.473Z,6.30
2018-09-09T11:41:39.405Z,5.73
2018-09-09T11:44:06.709Z,5.50
2018-09-09T11:46:34.005Z,5.87
2018-09-09T11:49:01.869Z,5.87
2018-09-09T11:51:29.028Z,6.17
2018-09-09T11:53:56.549Z,5.50
2018-09-09T11:56:24.622Z,5.23
2018-09-09T11:58:51.848Z,5.80
2018-09-09T12:01:19.035Z,5.30
2018-09-09T12:03:46.262Z,5.77
2018-09-09T12:06:13.391Z,4.87
2018-09-09T12:08:40.631Z,4.10
2018-09-09T12:11:07.885Z,4.53
2018-09-09T12:13:35.082Z,5.10
2018-09-09T12:16:02.306Z,5.53
2018-09-09T12:18:29.557Z,4.80
2018-09-09T12:20:56.745Z,4.87
2018-09-09T12:23:24.179Z,4.90
2018-09-09T12:25:51.333Z,4.97
2018-09-09T12:28:18.553Z,5.00
2018-09-09T12:30:45.770Z,4.70
2018-09-09T12:33:12.945Z,5.10
2018-09-09T12:35:40.147Z,5.30
2018-09-09T12:38:07.455Z,5.00
2018-09-09T12:40:34.644Z,4.20
2018-09-09T12:43:07.718Z,5.10
2018-09-09T12:45:40.652Z,5.20
2018-09-09T12:48:13.650Z,6.37
2018-09-09T12:50:40.808Z,5.43
2018-09-09T12:53:08.122Z,5.83
2018-09-09T12:55:35.291Z,5.40
2018-09-09T12:58:02.470Z,6.17
2018-09-09T13:00:29.732Z,5.63
2018-09-09T13:02:56.846Z,4.93
2018-09-09T13:05:24.415Z,5.07
2018-09-09T13:07:51.624Z,5.37
2018-09-09T13:10:18.827Z,4.50
2018-09-09T13:12:52.950Z,5.27
2018-09-09T13:15:20.208Z,5.33
2018-09-09T13:17:47.381Z,4.77
2018-09-09T13:20:14.637Z,4.60
2018-09-09T13:22:41.872Z,4.57
2018-09-09T13:25:09.028Z,5.33
2018-09-09T13:27:36.356Z,4.60
2018-09-09T13:30:04.166Z,4.83
2018-09-09T13:32:31.498Z,4.90
2018-09-09T13:34:58.808Z,4.17
2018-09-09T13:37:26.042Z,3.80
2018-09-09T13:39:53.262Z,4.13
2018-09-09T13:42:20.689Z,4.83
2018-09-09T13:44:47.877Z,4.57
2018-09-09T13:47:15.163Z,4.37
2018-09-09T13:49:42.558Z,4.30
2018-09-09T13:52:09.771Z,4.90
2018-09-09T13:54:37.009Z,4.67
2018-09-09T13:57:04.246Z,5.10
2018-09-09T13:59:31.490Z,4.50
2018-09-09T14:01:58.918Z,4.90
2018-09-09T14:04:26.124Z,4.47
2018-09-09T14:06:53.426Z,4.37
2018-09-09T14:09:20.672Z,4.90
2018-09-09T14:11:47.878Z,4.50
2018-09-09T14:14:15.154Z,4.80
2018-09-09T14:16:42.490Z,5.23
2018-09-09T14:19:09.690Z,4.17
2018-09-09T14:21:36.969Z,4.33
2018-09-09T14:24:04.335Z,4.93
2018-09-09T14:26:31.572Z,4.10
2018-09-09T14:28:58.833Z,4.13
2018-09-09T14:31:26.106Z,4.43
2018-09-09T14:33:53.472Z,3.70
2018-09-09T14:36:20.739Z,3.97
2018-09-09T14:38:48.010Z,4.60
2018-09-09T14:41:15.222Z,4.70
2018-09-09T14:43:42.543Z,3.93
2018-09-09T14:46:09.979Z,4.03
2018-09-09T14:48:37.017Z,4.00
2018-09-09T14:51:04.444Z,4.30
2018-09-09T14:53:31.693Z,4.00
2018-09-09T14:55:58.848Z,3.67
2018-09-09T14:58:26.258Z,3.70
2018-09-09T15:00:53.410Z,4.17
2018-09-09T15:03:20.992Z,4.00
2018-09-09T15:05:48.296Z,4.10
2018-09-09T15:08:15.490Z,4.27
2018-09-09T15:10:42.710Z,3.63
2018-09-09T15:13:09.921Z,3.90
2018-09-09T15:15:37.077Z,3.97
2018-09-09T15:18:04.361Z,4.10
2018-09-09T15:20:31.520Z,4.03
2018-09-09T15:22:58.761Z,3.47
2018-09-09T15:25:25.975Z,3.80
2018-09-09T15:27:53.310Z,3.73
2018-09-09T15:30:20.576Z,3.80
2018-09-09T15:32:47.803Z,3.47
2018-09-09T15:35:15.029Z,3.57
2018-09-09T15:37:42.311Z,3.20
2018-09-09T15:40:09.673Z,4.20
2018-09-09T15:42:36.866Z,3.77
2018-09-09T15:45:05.415Z,4.00
2018-09-09T15:47:33.241Z,3.20
2018-09-09T15:50:00.501Z,3.63
2018-09-09T15:52:27.678Z,3.47
2018-09-09T15:54:55.002Z,3.70
2018-09-09T15:57:23.035Z,3.57
2018-09-09T15:59:50.227Z,3.10
2018-09-09T16:02:17.614Z,3.60
2018-09-09T16:04:44.789Z,4.00
2018-09-09T16:07:12.724Z,4.10
2018-09-09T16:09:40.009Z,3.50
2018-09-09T16:12:08.078Z,3.43
2018-09-09T16:14:35.293Z,3.23
2018-09-09T16:17:02.619Z,2.63
2018-09-09T16:19:29.861Z,2.90
2018-09-09T16:21:57.246Z,2.53
2018-09-09T16:24:24.574Z,2.87
2018-09-09T16:26:51.884Z,3.63
2018-09-09T16:29:19.092Z,3.30
2018-09-09T16:31:46.430Z,3.00
2018-09-09T16:34:13.794Z,2.47
2018-09-09T16:36:41.185Z,2.67
2018-09-09T16:39:08.623Z,2.60
2018-09-09T16:41:35.898Z,2.37
2018-09-09T16:44:03.278Z,3.33
2018-09-09T16:46:31.635Z,2.40
2018-09-09T16:48:58.896Z,2.70
2018-09-09T16:51:26.136Z,3.27
2018-09-09T16:53:53.450Z,2.90
2018-09-09T16:56:20.653Z,2.83
2018-09-09T16:58:47.909Z,3.23
2018-09-09T17:01:15.203Z,3.13
2018-09-09T17:03:43.032Z,2.67
2018-09-09T17:06:10.315Z,2.87
2018-09-09T17:08:38.569Z,3.63
2018-09-09T17:11:06.198Z,2.97
2018-09-09T17:13:33.569Z,2.90
2018-09-09T17:16:00.822Z,2.23
2018-09-09T17:18:28.061Z,2.43
2018-09-09T17:20:55.318Z,2.87
2018-09-09T17:23:22.578Z,3.30
2018-09-09T17:25:49.777Z,3.60
2018-09-09T17:28:17.058Z,2.90
2018-09-09T17:30:44.462Z,2.97
2018-09-09T17:33:11.708Z,3.00
2018-09-09T17:35:38.894Z,2.77
2018-09-09T17:38:06.891Z,3.00
2018-09-09T17:40:34.080Z,3.37
2018-09-09T17:43:01.751Z,3.63
2018-09-09T17:45:29.078Z,4.20
2018-09-09T17:47:56.343Z,3.47
2018-09-09T17:50:23.655Z,4.20
2018-09-09T17:52:51.072Z,3.90
2018-09-09T17:55:18.326Z,4.97
2018-09-09T17:57:45.612Z,4.30
2018-09-09T18:00:13.375Z,3.70
2018-09-09T18:02:40.574Z,4.00
2018-09-09T18:05:08.373Z,3.80
2018-09-09T18:07:35.672Z,3.63
2018-09-09T18:10:03.839Z,3.40
2018-09-09T18:12:31.082Z,3.43
2018-09-09T18:14:58.588Z,3.97
2018-09-09T18:17:25.824Z,3.37
2018-09-09T18:19:52.968Z,3.70
2018-09-09T18:22:20.853Z,3.57
2018-09-09T18:24:49.262Z,3.50
2018-09-09T18:27:16.510Z,4.00
2018-09-09T18:29:43.828Z,3.73
2018-09-09T18:32:11.149Z,3.20
2018-09-09T18:34:38.405Z,3.30
2018-09-09T18:37:05.824Z,3.77
2018-09-09T18:39:33.394Z,3.00
2018-09-09T18:42:00.665Z,4.10
2018-09-09T18:44:27.887Z,3.83
2018-09-09T18:46:55.136Z,4.37
2018-09-09T18:49:22.390Z,4.73
2018-09-09T18:51:49.752Z,3.93
2018-09-09T18:54:17.065Z,4.07
2018-09-09T18:56:44.273Z,3.97
2018-09-09T18:59:11.599Z,3.53
2018-09-09T19:01:38.856Z,4.20
2018-09-09T19:04:06.221Z,3.70
2018-09-09T19:06:33.525Z,3.80
2018-09-09T19:09:00.941Z,4.73
2018-09-09T19:11:28.251Z,5.57
2018-09-09T19:13:55.719Z,4.87
2018-09-09T19:16:23.002Z,5.03
2018-09-09T19:18:50.259Z,5.00
2018-09-09T19:21:17.665Z,4.77
2018-09-09T19:23:44.845Z,5.30
2018-09-09T19:26:12.083Z,5.07
2018-09-09T19:28:39.330Z,5.37
2018-09-09T19:31:07.447Z,4.93
2018-09-09T19:33:34.775Z,4.20
2018-09-09T19:36:02.130Z,5.73
2018-09-09T19:38:29.430Z,6.90
2018-09-09T19:40:56.714Z,7.10
2018-09-09T19:43:24.047Z,9.30
2018-09-09T19:45:51.887Z,10.60
2018-09-09T19:48:19.520Z,9.77
2018-09-09T19:50:46.881Z,9.27
2018-09-09T19:53:15.301Z,9.50
2018-09-09T19:55:42.560Z,7.90
2018-09-09T19:58:09.837Z,7.53
2018-09-09T20:00:37.690Z,8.63
2018-09-09T20:03:04.937Z,8.33
2018-09-09T20:05:32.497Z,7.43
2018-09-09T20:07:59.720Z,7.07
2018-09-09T20:10:26.885Z,6.30
2018-09-09T20:12:54.598Z,5.60
2018-09-09T20:15:21.936Z,6.03
2018-09-09T20:17:50.116Z,5.77
2018-09-09T20:20:17.343Z,5.83
2018-09-09T20:22:44.764Z,5.47
2018-09-09T20:25:12.026Z,5.73
2018-09-09T20:27:40.809Z,5.07
2018-09-09T20:30:08.171Z,5.57
2018-09-09T20:32:35.417Z,6.13
2018-09-09T20:35:02.864Z,5.83
2018-09-09T20:37:30.144Z,6.70
2018-09-09T20:39:57.348Z,7.33
2018-09-09T20:42:24.563Z,6.57
2018-09-09T20:44:51.872Z,5.90
2018-09-09T20:47:19.167Z,6.83
2018-09-09T20:49:46.483Z,5.30
2018-09-09T20:52:13.987Z,5.90
2018-09-09T20:54:41.147Z,5.40
2018-09-09T20:57:08.456Z,5.30
2018-09-09T20:59:35.696Z,6.07
2018-09-09T21:02:02.938Z,5.70
2018-09-09T21:04:30.187Z,5.73
2018-09-09T21:06:57.397Z,5.37
2018-09-09T21:09:24.595Z,6.27
2018-09-09T21:11:51.889Z,6.93
2018-09-09T21:14:19.159Z,6.97
2018-09-09T21:16:46.518Z,6.10
2018-09-09T21:19:13.761Z,5.53
2018-09-09T21:21:40.946Z,5.57
2018-09-09T21:24:08.343Z,5.67
2018-09-09T21:26:36.076Z,6.30
2018-09-09T21:29:03.254Z,6.37
2018-09-09T21:31:30.649Z,6.30
2018-09-09T21:33:57.908Z,5.63
2018-09-09T21:36:25.109Z,6.27
2018-09-09T21:38:52.352Z,5.00
2018-09-09T21:41:19.530Z,5.87
2018-09-09T21:43:46.689Z,5.70
2018-09-09T21:46:14.017Z,6.50
2018-09-09T21:48:41.220Z,6.33
2018-09-09T21:51:08.324Z,5.33
2018-09-09T21:53:35.677Z,5.70
2018-09-09T21:56:02.854Z,5.70
2018-09-09T21:58:30.132Z,6.67
2018-09-09T22:01:03.017Z,6.57
2018-09-09T22:03:30.771Z,6.20
2018-09-09T22:05:57.986Z,5.40
2018-09-09T22:08:26.173Z,5.80
2018-09-09T22:10:53.325Z,5.77
2018-09-09T22:13:20.572Z,6.40
2018-09-09T22:15:47.747Z,5.30
2018-09-09T22:18:14.965Z,7.93
2018-09-09T22:20:42.381Z,5.40
2018-09-09T22:23:09.561Z,5.57
2018-09-09T22:25:37.137Z,5.90
2018-09-09T22:28:04.718Z,5.43
2018-09-09T22:30:31.937Z,5.63
2018-09-09T22:32:59.328Z,5.50
2018-09-09T22:35:26.747Z,5.00
2018-09-09T22:37:53.928Z,4.73
2018-09-09T22:40:21.185Z,5.80
2018-09-09T22:42:48.329Z,5.43
2018-09-09T22:45:15.492Z,5.43
2018-09-09T22:47:42.920Z,4.67
2018-09-09T22:50:10.788Z,5.97
2018-09-09T22:52:37.935Z,5.20
2018-09-09T22:55:05.192Z,5.93
2018-09-09T22:57:32.678Z,5.70
2018-09-09T22:59:59.860Z,6.13
2018-09-09T23:02:27.173Z,5.97
2018-09-09T23:04:54.365Z,5.17
2018-09-09T23:07:21.567Z,5.40
2018-09-09T23:09:48.766Z,7.13
2018-09-09T23:12:15.935Z,6.60
2018-09-09T23:14:43.303Z,7.03
2018-09-09T23:17:10.564Z,6.00
2018-09-09T23:19:37.700Z,5.40
2018-09-09T23:22:04.892Z,6.17
2018-09-09T23:24:32.045Z,5.60
2018-09-09T23:26:59.189Z,6.33
2018-09-09T23:29:26.416Z,5.73
2018-09-09T23:31:53.666Z,5.80
2018-09-09T23:34:20.813Z,7.10
2018-09-09T23:36:48.128Z,5.20
2018-09-09T23:39:15.293Z,7.50
2018-09-09T23:41:42.537Z,7.03
2018-09-09T23:44:09.708Z,7.13
2018-09-09T23:46:37.622Z,6.80
2018-09-09T23:49:04.787Z,6.73
2018-09-09T23:51:32.017Z,7.30
2018-09-09T23:53:59.227Z,6.60
2018-09-09T23:56:26.428Z,6.63
2018-09-09T23:58:53.627Z,6.10
